createdAt,value
2022-10-21T00:00:18.563Z,58.85
2022-10-21T00:02:46.415Z,56.65
2022-10-21T00:05:13.611Z,57.63
2022-10-21T00:07:40.585Z,57.38
2022-10-21T00:10:08.591Z,57.78
2022-10-21T00:12:37.085Z,58.60
2022-10-21T00:15:05.723Z,60.22
2022-10-21T00:17:35.430Z,58.22
2022-10-21T00:20:05.083Z,58.63
2022-10-21T00:22:31.883Z,56.92
2022-10-21T00:24:58.907Z,59.45
2022-10-21T00:27:25.793Z,55.78
2022-10-21T00:29:52.595Z,55.72
2022-10-21T00:32:19.499Z,59.00
2022-10-21T00:34:47.026Z,57.67
2022-10-21T00:37:14.937Z,60.03
2022-10-21T00:39:41.904Z,57.58
2022-10-21T00:42:15.282Z,59.30
2022-10-21T00:44:42.183Z,58.90
2022-10-21T00:47:21.599Z,57.85
2022-10-21T00:50:03.727Z,58.85
2022-10-21T00:52:33.947Z,56.55
2022-10-21T00:55:04.854Z,58.00
2022-10-21T00:57:35.097Z,58.30
2022-10-21T01:00:05.332Z,57.40
2022-10-21T01:02:32.485Z,58.65
2022-10-21T01:05:01.897Z,58.83
2022-10-21T01:07:29.072Z,56.83
2022-10-21T01:09:55.856Z,56.65
2022-10-21T01:12:31.625Z,55.22
2022-10-21T01:15:33.495Z,58.97
2022-10-21T01:18:15.369Z,58.47
2022-10-21T01:21:19.995Z,56.03
2022-10-21T01:23:52.658Z,57.53
2022-10-21T01:26:50.693Z,58.10
2022-10-21T01:29:36.027Z,52.63
2022-10-21T01:32:40.048Z,55.45
2022-10-21T01:35:22.556Z,56.13
2022-10-21T01:37:56.182Z,58.45
2022-10-21T01:40:33.115Z,56.35
2022-10-21T01:43:32.825Z,57.55
2022-10-21T01:46:09.300Z,57.08
2022-10-21T01:48:41.863Z,56.33
2022-10-21T01:51:09.990Z,56.40
2022-10-21T01:53:44.331Z,56.72
2022-10-21T01:56:13.689Z,56.85
2022-10-21T01:58:43.448Z,57.85
2022-10-21T02:01:12.957Z,54.83
2022-10-21T02:03:43.930Z,55.85
2022-10-21T02:06:14.037Z,57.63
2022-10-21T02:08:42.650Z,57.58
2022-10-21T02:11:11.916Z,54.60
2022-10-21T02:14:04.064Z,52.15
2022-10-21T02:16:35.435Z,55.67
2022-10-21T02:19:02.368Z,57.75
2022-10-21T02:21:35.020Z,56.67
2022-10-21T02:24:22.664Z,56.47
2022-10-21T02:26:49.621Z,54.17
2022-10-21T02:29:22.998Z,56.30
2022-10-21T02:32:01.986Z,56.58
2022-10-21T02:34:39.736Z,56.83
2022-10-21T02:37:28.220Z,56.55
2022-10-21T02:40:14.305Z,59.17
2022-10-21T02:42:48.239Z,56.85
2022-10-21T02:45:16.851Z,58.58
2022-10-21T02:47:43.893Z,57.72
2022-10-21T02:50:10.895Z,57.40
2022-10-21T02:52:37.642Z,54.47
2022-10-21T02:55:04.824Z,58.17
2022-10-21T02:57:31.573Z,57.65
2022-10-21T02:59:58.298Z,59.03
2022-10-21T03:02:25.329Z,56.15
2022-10-21T03:04:52.080Z,55.13
2022-10-21T03:07:18.984Z,59.33
2022-10-21T03:09:45.753Z,59.47
2022-10-21T03:12:12.552Z,58.92
2022-10-21T03:14:39.396Z,58.45
2022-10-21T03:17:06.262Z,58.15
2022-10-21T03:19:33.119Z,58.88
2022-10-21T03:21:59.956Z,57.80
2022-10-21T03:24:28.869Z,60.40
2022-10-21T03:26:56.431Z,60.10
2022-10-21T03:29:23.282Z,59.58
2022-10-21T03:31:50.083Z,57.90
2022-10-21T03:34:16.905Z,59.72
2022-10-21T03:36:43.887Z,62.70
2022-10-21T03:39:11.875Z,62.10
2022-10-21T03:41:38.870Z,57.90
2022-10-21T03:44:05.658Z,57.92
2022-10-21T03:46:32.670Z,57.97
2022-10-21T03:49:03.629Z,58.03
2022-10-21T03:51:32.789Z,55.83
2022-10-21T03:53:59.596Z,54.40
2022-10-21T03:56:27.310Z,54.40
2022-10-21T03:58:58.543Z,56.20
2022-10-21T04:01:26.393Z,58.70
2022-10-21T04:03:53.577Z,58.20
2022-10-21T04:06:20.422Z,59.60
2022-10-21T04:08:47.577Z,59.67
2022-10-21T04:11:14.870Z,55.50
2022-10-21T04:13:41.829Z,56.92
2022-10-21T04:16:13.666Z,59.20
2022-10-21T04:18:40.443Z,55.28
2022-10-21T04:21:08.790Z,56.85
2022-10-21T04:23:36.160Z,57.08
2022-10-21T04:26:03.878Z,55.00
2022-10-21T04:28:31.095Z,55.75
2022-10-21T04:30:57.875Z,55.92
2022-10-21T04:33:24.920Z,57.25
2022-10-21T04:35:54.377Z,55.40
2022-10-21T04:38:22.546Z,56.33
2022-10-21T04:40:59.334Z,55.70
2022-10-21T04:43:26.865Z,56.15
2022-10-21T04:45:54.505Z,58.72
2022-10-21T04:48:22.115Z,55.17
2022-10-21T04:50:53.226Z,58.95
2022-10-21T04:53:21.444Z,55.78
2022-10-21T04:55:54.377Z,57.45
2022-10-21T04:58:22.497Z,54.72
2022-10-21T05:00:52.923Z,55.40
2022-10-21T05:03:20.400Z,56.65
2022-10-21T05:05:52.084Z,55.15
2022-10-21T05:08:20.032Z,56.70
2022-10-21T05:10:47.183Z,56.53
2022-10-21T05:13:14.470Z,55.83
2022-10-21T05:15:41.235Z,57.70
2022-10-21T05:18:08.002Z,56.47
2022-10-21T05:20:34.826Z,56.90
2022-10-21T05:23:01.599Z,58.28
2022-10-21T05:25:31.751Z,56.58
2022-10-21T05:28:01.170Z,56.47
2022-10-21T05:30:28.063Z,55.45
2022-10-21T05:32:54.868Z,57.13
2022-10-21T05:35:21.636Z,58.08
2022-10-21T05:37:48.464Z,57.58
2022-10-21T05:40:15.328Z,56.38
2022-10-21T05:42:42.163Z,58.25
2022-10-21T05:45:09.818Z,58.45
2022-10-21T05:47:36.626Z,59.58
2022-10-21T05:50:03.731Z,61.03
2022-10-21T05:52:31.532Z,61.33
2022-10-21T05:54:58.319Z,59.22
2022-10-21T05:57:25.183Z,57.13
2022-10-21T05:59:51.998Z,59.10
2022-10-21T06:02:18.773Z,59.70
2022-10-21T06:04:45.547Z,58.40
2022-10-21T06:07:12.307Z,59.55
2022-10-21T06:09:39.181Z,58.08
2022-10-21T06:12:07.043Z,62.55
2022-10-21T06:14:36.292Z,61.08
2022-10-21T06:17:04.416Z,58.75
2022-10-21T06:19:31.443Z,59.33
2022-10-21T06:21:58.908Z,59.80
2022-10-21T06:24:25.877Z,57.33
2022-10-21T06:26:52.678Z,55.70
2022-10-21T06:29:19.597Z,55.00
2022-10-21T06:31:46.457Z,53.63
2022-10-21T06:34:13.357Z,55.15
2022-10-21T06:36:40.216Z,52.42
2022-10-21T06:39:08.454Z,55.63
2022-10-21T06:41:35.204Z,53.63
2022-10-21T06:44:02.077Z,51.55
2022-10-21T06:46:28.845Z,52.95
2022-10-21T06:48:56.127Z,53.63
2022-10-21T06:51:24.645Z,52.35
2022-10-21T06:53:54.396Z,53.78
2022-10-21T06:56:22.429Z,54.13
2022-10-21T06:58:50.407Z,52.25
2022-10-21T07:01:40.970Z,49.75
2022-10-21T07:04:09.433Z,50.90
2022-10-21T07:06:36.587Z,49.58
2022-10-21T07:09:05.924Z,50.63
2022-10-21T07:11:32.725Z,49.57
2022-10-21T07:14:00.556Z,48.80
2022-10-21T07:16:33.462Z,49.53
2022-10-21T07:19:00.510Z,50.13
2022-10-21T07:21:29.355Z,50.60
2022-10-21T07:23:59.281Z,49.80
2022-10-21T07:26:28.685Z,50.25
2022-10-21T07:28:58.342Z,51.53
2022-10-21T07:31:25.739Z,49.63
2022-10-21T07:33:53.474Z,50.45
2022-10-21T07:36:24.098Z,50.53
2022-10-21T07:38:51.814Z,48.65
2022-10-21T07:41:20.609Z,51.63
2022-10-21T07:43:48.115Z,48.25
2022-10-21T07:46:16.078Z,49.47
2022-10-21T07:48:42.909Z,50.00
2022-10-21T07:51:13.056Z,49.80
2022-10-21T07:53:40.927Z,49.00
2022-10-21T07:56:26.491Z,49.80
2022-10-21T07:58:53.434Z,51.53
2022-10-21T08:01:21.173Z,50.22
2022-10-21T08:03:48.969Z,50.88
2022-10-21T08:06:17.565Z,49.45
2022-10-21T08:08:45.647Z,51.47
2022-10-21T08:11:24.379Z,49.53
2022-10-21T08:13:51.176Z,49.65
2022-10-21T08:16:17.964Z,51.83
2022-10-21T08:18:44.894Z,52.67
2022-10-21T08:21:12.048Z,51.38
2022-10-21T08:23:38.990Z,49.58
2022-10-21T08:26:10.231Z,49.88
2022-10-21T08:28:37.309Z,48.95
2022-10-21T08:31:13.099Z,52.10
2022-10-21T08:33:40.233Z,50.70
2022-10-21T08:36:08.743Z,51.17
2022-10-21T08:38:35.966Z,50.15
2022-10-21T08:41:10.386Z,50.17
2022-10-21T08:43:39.278Z,51.40
2022-10-21T08:46:16.987Z,49.97
2022-10-21T08:48:54.035Z,50.13
2022-10-21T08:51:31.779Z,51.03
2022-10-21T08:54:05.220Z,51.08
2022-10-21T08:56:32.759Z,52.53
2022-10-21T08:58:59.543Z,52.85
2022-10-21T09:01:49.173Z,51.13
2022-10-21T09:04:29.467Z,52.65
2022-10-21T09:07:02.881Z,52.63
2022-10-21T09:09:36.943Z,52.40
2022-10-21T09:12:08.400Z,50.65
2022-10-21T09:14:41.393Z,47.58
2022-10-21T09:17:25.254Z,47.53
2022-10-21T09:20:02.860Z,49.65
2022-10-21T09:22:56.905Z,49.25
2022-10-21T09:25:30.030Z,48.03
2022-10-21T09:27:58.283Z,45.33
2022-10-21T09:30:26.092Z,47.97
2022-10-21T09:33:00.404Z,45.75
2022-10-21T09:35:35.081Z,46.67
2022-10-21T09:38:10.603Z,46.53
2022-10-21T09:40:37.552Z,42.97
2022-10-21T09:43:06.413Z,45.45
2022-10-21T09:45:39.104Z,46.22
2022-10-21T09:48:17.765Z,45.75
2022-10-21T09:50:51.553Z,43.33
2022-10-21T09:53:26.623Z,42.63
2022-10-21T09:56:02.628Z,41.45
2022-10-21T09:58:45.854Z,41.22
2022-10-21T10:01:22.822Z,40.33
2022-10-21T10:03:51.855Z,41.80
2022-10-21T10:06:34.867Z,41.00
2022-10-21T10:09:16.934Z,40.50
2022-10-21T10:12:04.021Z,39.90
2022-10-21T10:14:34.619Z,38.60
2022-10-21T10:17:20.347Z,40.38
2022-10-21T10:20:05.573Z,39.47
2022-10-21T10:22:45.921Z,39.38
2022-10-21T10:25:16.958Z,38.53
2022-10-21T10:28:16.402Z,36.85
2022-10-21T10:30:43.144Z,37.47
2022-10-21T10:33:26.259Z,36.63
2022-10-21T10:35:54.614Z,35.83
2022-10-21T10:38:25.116Z,35.05
2022-10-21T10:40:56.321Z,32.63
2022-10-21T10:43:32.089Z,33.22
2022-10-21T10:46:02.147Z,31.45
2022-10-21T10:48:43.458Z,31.55
2022-10-21T10:51:29.543Z,31.30
2022-10-21T10:54:17.456Z,31.00
2022-10-21T10:56:51.929Z,31.67
2022-10-21T10:59:40.993Z,31.58
2022-10-21T11:02:07.931Z,30.25
2022-10-21T11:04:49.956Z,28.63
2022-10-21T11:07:24.638Z,28.70
2022-10-21T11:09:56.896Z,28.92
2022-10-21T11:12:26.484Z,30.55
2022-10-21T11:15:00.319Z,29.23
2022-10-21T11:17:41.225Z,28.55
2022-10-21T11:20:11.165Z,28.13
2022-10-21T11:22:46.719Z,30.20
2022-10-21T11:25:40.122Z,30.98
2022-10-21T11:28:25.689Z,27.95
2022-10-21T11:31:30.620Z,27.73
2022-10-21T11:34:17.592Z,30.08
2022-10-21T11:37:07.892Z,32.00
2022-10-21T11:39:52.738Z,31.45
2022-10-21T11:42:28.551Z,32.20
2022-10-21T11:45:26.319Z,31.77
2022-10-21T11:47:58.878Z,29.55
2022-10-21T11:50:32.486Z,29.75
2022-10-21T11:53:17.921Z,31.08
2022-10-21T11:55:59.834Z,29.08
2022-10-21T11:58:54.610Z,30.70
2022-10-21T12:01:24.218Z,28.85
2022-10-21T12:04:14.845Z,30.73
2022-10-21T12:06:52.480Z,29.55
2022-10-21T12:09:39.092Z,28.90
2022-10-21T12:12:11.805Z,26.85
2022-10-21T12:14:44.561Z,26.92
2022-10-21T12:17:17.121Z,26.60
2022-10-21T12:19:51.646Z,26.98
2022-10-21T12:22:18.693Z,24.60
2022-10-21T12:24:51.836Z,25.10
2022-10-21T12:27:28.142Z,25.65
2022-10-21T12:30:13.395Z,24.02
2022-10-21T12:32:43.224Z,23.13
2022-10-21T12:35:25.094Z,24.45
2022-10-21T12:37:51.868Z,23.10
2022-10-21T12:40:27.683Z,24.25
2022-10-21T12:43:01.369Z,23.85
2022-10-21T12:45:34.793Z,20.90
2022-10-21T12:48:05.824Z,21.15
2022-10-21T12:50:34.737Z,20.92
2022-10-21T12:53:48.345Z,22.60
2022-10-21T12:56:42.807Z,21.02
2022-10-21T12:59:27.643Z,22.25
2022-10-21T13:02:06.727Z,23.90
2022-10-21T13:04:33.594Z,23.83
2022-10-21T13:07:16.560Z,24.40
2022-10-21T13:10:06.049Z,24.33
2022-10-21T13:12:33.795Z,24.55
2022-10-21T13:15:22.336Z,23.92
2022-10-21T13:17:56.812Z,26.15
2022-10-21T13:20:23.632Z,24.88
2022-10-21T13:23:03.319Z,25.88
2022-10-21T13:25:35.300Z,25.55
2022-10-21T13:28:14.402Z,25.15
2022-10-21T13:30:59.164Z,25.15
2022-10-21T13:33:29.907Z,27.58
2022-10-21T13:36:01.695Z,26.67
2022-10-21T13:38:37.837Z,24.40
2022-10-21T13:41:20.007Z,25.92
2022-10-21T13:43:53.449Z,26.55
2022-10-21T13:46:43.364Z,25.73
2022-10-21T13:49:28.743Z,26.20
2022-10-21T13:51:56.291Z,25.20
2022-10-21T13:54:23.118Z,25.77
2022-10-21T13:56:50.000Z,26.92
2022-10-21T13:59:25.897Z,26.42
2022-10-21T14:01:55.846Z,25.33
2022-10-21T14:04:30.666Z,24.92
2022-10-21T14:06:58.251Z,24.88
2022-10-21T14:09:32.130Z,25.10
2022-10-21T14:12:02.725Z,25.20
2022-10-21T14:14:32.264Z,23.85
2022-10-21T14:17:18.060Z,23.52
2022-10-21T14:19:50.225Z,23.30
2022-10-21T14:22:21.071Z,24.08
2022-10-21T14:24:49.844Z,26.92
2022-10-21T14:27:31.492Z,24.73
2022-10-21T14:30:01.609Z,24.70
2022-10-21T14:32:29.285Z,25.05
2022-10-21T14:34:59.325Z,24.92
2022-10-21T14:37:26.196Z,26.90
2022-10-21T14:39:53.312Z,24.20
2022-10-21T14:42:25.347Z,22.83
2022-10-21T14:45:02.825Z,24.77
2022-10-21T14:47:29.851Z,24.30
2022-10-21T14:50:00.480Z,24.00
2022-10-21T14:52:30.433Z,24.48
2022-10-21T14:55:02.172Z,24.35
2022-10-21T14:57:47.748Z,25.52
2022-10-21T15:00:32.046Z,27.48
2022-10-21T15:03:00.551Z,25.40
2022-10-21T15:05:31.869Z,27.13
2022-10-21T15:08:21.199Z,25.30
2022-10-21T15:10:57.077Z,26.73
2022-10-21T15:13:26.762Z,26.70
2022-10-21T15:15:55.942Z,27.33
2022-10-21T15:18:22.698Z,28.27
2022-10-21T15:21:00.251Z,28.05
2022-10-21T15:23:40.093Z,29.45
2022-10-21T15:26:21.473Z,30.83
2022-10-21T15:28:48.806Z,29.00
2022-10-21T15:31:20.746Z,31.13
2022-10-21T15:33:53.613Z,28.70
2022-10-21T15:36:20.752Z,30.25
2022-10-21T15:38:48.515Z,28.02
2022-10-21T15:41:29.212Z,28.73
2022-10-21T15:44:03.356Z,29.02
2022-10-21T15:46:33.222Z,28.90
2022-10-21T15:49:06.967Z,28.88
2022-10-21T15:51:33.761Z,29.73
2022-10-21T15:54:00.654Z,28.17
2022-10-21T15:56:27.543Z,27.85
2022-10-21T15:58:54.358Z,28.45
2022-10-21T16:01:21.393Z,28.33
2022-10-21T16:03:48.259Z,30.10
2022-10-21T16:06:17.678Z,28.95
2022-10-21T16:08:44.684Z,31.45
2022-10-21T16:11:25.537Z,31.88
2022-10-21T16:14:01.742Z,30.73
2022-10-21T16:16:28.889Z,29.45
2022-10-21T16:18:55.756Z,33.58
2022-10-21T16:21:23.110Z,31.55
2022-10-21T16:23:50.700Z,33.90
2022-10-21T16:26:22.619Z,32.75
2022-10-21T16:28:54.587Z,33.28
2022-10-21T16:31:21.711Z,31.05
2022-10-21T16:33:48.692Z,33.13
2022-10-21T16:36:24.354Z,33.20
2022-10-21T16:38:52.456Z,33.65
2022-10-21T16:41:21.658Z,35.53
2022-10-21T16:43:48.525Z,32.67
2022-10-21T16:46:33.468Z,34.38
2022-10-21T16:49:03.515Z,37.80
2022-10-21T16:51:31.414Z,37.53
2022-10-21T16:53:58.544Z,40.17
2022-10-21T16:56:25.603Z,38.95
2022-10-21T16:58:52.681Z,39.30
2022-10-21T17:01:22.849Z,38.80
2022-10-21T17:03:50.699Z,38.53
2022-10-21T17:06:20.378Z,40.30
2022-10-21T17:08:48.300Z,40.78
2022-10-21T17:11:19.826Z,40.30
2022-10-21T17:13:46.828Z,41.40
2022-10-21T17:16:13.686Z,38.10
2022-10-21T17:18:41.706Z,39.72
2022-10-21T17:21:21.932Z,41.92
2022-10-21T17:23:49.485Z,42.67
2022-10-21T17:26:17.522Z,41.42
2022-10-21T17:28:44.609Z,41.53
2022-10-21T17:31:19.212Z,42.17
2022-10-21T17:33:47.242Z,42.30
2022-10-21T17:36:15.780Z,43.35
2022-10-21T17:38:43.147Z,41.00
2022-10-21T17:41:11.248Z,40.22
2022-10-21T17:43:38.982Z,40.85
2022-10-21T17:46:06.059Z,41.00
2022-10-21T17:48:33.934Z,38.33
2022-10-21T17:51:02.271Z,42.50
2022-10-21T17:53:30.763Z,42.97
2022-10-21T17:55:59.664Z,44.45
2022-10-21T17:58:27.500Z,45.00
2022-10-21T18:00:58.293Z,42.88
2022-10-21T18:03:26.983Z,42.03
2022-10-21T18:05:55.673Z,42.65
2022-10-21T18:08:23.522Z,42.60
2022-10-21T18:10:58.637Z,40.42
2022-10-21T18:13:28.715Z,43.28
2022-10-21T18:16:01.048Z,41.72
2022-10-21T18:18:27.927Z,41.78
2022-10-21T18:20:54.806Z,41.70
2022-10-21T18:23:21.657Z,40.97
2022-10-21T18:25:48.508Z,41.25
2022-10-21T18:28:15.366Z,40.63
2022-10-21T18:30:43.550Z,39.05
2022-10-21T18:33:11.007Z,40.78
2022-10-21T18:35:37.996Z,44.10
2022-10-21T18:38:04.862Z,44.20
2022-10-21T18:40:33.517Z,42.97
2022-10-21T18:43:00.324Z,41.95
2022-10-21T18:45:27.147Z,42.95
2022-10-21T18:47:55.544Z,42.13
2022-10-21T18:50:22.471Z,41.38
2022-10-21T18:52:49.583Z,44.72
2022-10-21T18:55:17.134Z,44.88
2022-10-21T18:57:44.246Z,44.38
2022-10-21T19:00:11.298Z,44.67
2022-10-21T19:02:38.097Z,44.60
2022-10-21T19:05:05.298Z,44.90
2022-10-21T19:07:32.169Z,48.17
2022-10-21T19:09:58.974Z,47.38
2022-10-21T19:12:25.837Z,48.03
2022-10-21T19:14:52.623Z,48.30
2022-10-21T19:17:19.820Z,47.55
2022-10-21T19:19:46.686Z,46.53
2022-10-21T19:22:14.588Z,45.97
2022-10-21T19:24:41.586Z,47.33
2022-10-21T19:27:08.524Z,47.38
2022-10-21T19:29:35.337Z,45.88
2022-10-21T19:32:02.352Z,46.15
2022-10-21T19:34:29.209Z,48.15
2022-10-21T19:36:56.016Z,48.30
2022-10-21T19:39:22.988Z,48.00
2022-10-21T19:41:49.780Z,47.67
2022-10-21T19:44:16.822Z,46.13
2022-10-21T19:46:44.696Z,48.72
2022-10-21T19:49:13.900Z,49.65
2022-10-21T19:51:40.794Z,48.72
2022-10-21T19:54:09.248Z,52.72
2022-10-21T19:56:36.186Z,50.13
2022-10-21T19:59:03.998Z,51.95
2022-10-21T20:01:31.598Z,51.67
2022-10-21T20:04:00.510Z,51.72
2022-10-21T20:06:33.263Z,51.17
2022-10-21T20:09:03.015Z,53.22
2022-10-21T20:11:30.073Z,49.70
2022-10-21T20:13:57.144Z,50.90
2022-10-21T20:16:30.622Z,49.47
2022-10-21T20:18:59.475Z,52.65
2022-10-21T20:21:27.665Z,50.10
2022-10-21T20:23:56.553Z,48.67
2022-10-21T20:26:23.505Z,49.00
2022-10-21T20:28:51.385Z,53.80
2022-10-21T20:31:19.165Z,54.10
2022-10-21T20:33:48.614Z,54.03
2022-10-21T20:36:21.581Z,54.50
2022-10-21T20:38:49.853Z,51.95
2022-10-21T20:41:22.900Z,48.33
2022-10-21T20:43:50.991Z,49.38
2022-10-21T20:46:18.899Z,45.70
2022-10-21T20:48:48.511Z,51.10
2022-10-21T20:51:21.545Z,49.90
2022-10-21T20:53:51.627Z,52.20
2022-10-21T20:56:19.290Z,54.95
2022-10-21T20:58:46.939Z,54.40
2022-10-21T21:01:20.523Z,55.38
2022-10-21T21:03:52.411Z,53.28
2022-10-21T21:06:19.854Z,53.63
2022-10-21T21:08:53.348Z,55.92
2022-10-21T21:11:25.716Z,59.25
2022-10-21T21:13:52.566Z,56.92
2022-10-21T21:16:22.065Z,57.33
2022-10-21T21:18:54.679Z,53.88
2022-10-21T21:21:23.105Z,55.75
2022-10-21T21:23:49.992Z,54.92
2022-10-21T21:26:22.616Z,56.22
2022-10-21T21:28:51.007Z,57.00
2022-10-21T21:31:20.054Z,56.03
2022-10-21T21:33:47.116Z,58.65
2022-10-21T21:36:15.918Z,60.08
2022-10-21T21:38:43.329Z,57.55
2022-10-21T21:41:10.902Z,58.30
2022-10-21T21:43:38.445Z,59.10
2022-10-21T21:46:05.603Z,58.78
2022-10-21T21:48:32.807Z,61.90
2022-10-21T21:51:04.846Z,60.63
2022-10-21T21:53:32.020Z,61.47
2022-10-21T21:56:03.588Z,60.53
2022-10-21T21:58:30.792Z,59.75
2022-10-21T22:00:58.009Z,60.65
2022-10-21T22:03:24.883Z,56.35
2022-10-21T22:05:51.678Z,57.95
2022-10-21T22:08:18.528Z,60.65
2022-10-21T22:10:45.272Z,59.60
2022-10-21T22:13:12.770Z,59.60
2022-10-21T22:15:48.368Z,59.42
2022-10-21T22:18:15.627Z,60.83
2022-10-21T22:20:42.469Z,58.72
2022-10-21T22:23:09.254Z,58.35
2022-10-21T22:25:38.447Z,59.90
2022-10-21T22:28:05.518Z,60.97
2022-10-21T22:30:32.332Z,62.92
2022-10-21T22:32:59.167Z,62.75
2022-10-21T22:35:26.993Z,58.25
2022-10-21T22:37:54.037Z,59.75
2022-10-21T22:40:20.863Z,62.85
2022-10-21T22:42:47.625Z,63.58
2022-10-21T22:45:14.504Z,63.65
2022-10-21T22:47:41.611Z,62.45
2022-10-21T22:50:09.159Z,61.65
2022-10-21T22:52:35.978Z,62.70
2022-10-21T22:55:02.821Z,60.63
2022-10-21T22:57:29.590Z,58.78
2022-10-21T22:59:56.353Z,59.88
2022-10-21T23:02:23.114Z,58.75
2022-10-21T23:04:49.974Z,58.30
2022-10-21T23:07:16.785Z,58.08
2022-10-21T23:09:43.567Z,55.72
2022-10-21T23:12:10.326Z,57.15
2022-10-21T23:14:37.099Z,56.72
2022-10-21T23:17:04.042Z,54.60
2022-10-21T23:19:30.803Z,53.65
2022-10-21T23:21:57.639Z,50.33
2022-10-21T23:24:24.485Z,52.35
2022-10-21T23:26:51.319Z,53.13
2022-10-21T23:29:18.089Z,52.70
2022-10-21T23:31:44.974Z,54.08
2022-10-21T23:34:11.840Z,52.67
2022-10-21T23:36:38.697Z,51.00
2022-10-21T23:39:05.680Z,51.38
2022-10-21T23:41:32.499Z,51.13
2022-10-21T23:43:59.303Z,50.78
2022-10-21T23:48:57.907Z,51.38
2022-10-21T23:51:24.769Z,51.42
2022-10-21T23:53:51.524Z,51.75
2022-10-21T23:56:18.470Z,52.28
2022-10-21T23:58:45.279Z,48.13
